Time;durP1;ratioP1;P1;durP2;ratioP2;P2;SDS_P1;SDS_P2;PMS_P1;PMS_P2;Temp;Humidity;BMP_temperature;BMP_pressure;BME280_temperature;BME280_humidity;BME280_pressure;Samples;Min_cycle;Max_cycle;Signal;HPM_P1;HPM_P2
2023/06/10 00:00:12;;;;;;;5.07;2.90;;;19.10;99.90;;;;;;4150366;28;20218;-76
2023/06/10 00:02:16;;;;;;;4.10;2.73;;;19.10;99.90;;;;;;4147800;28;20324;-76
2023/06/10 00:04:18;;;;;;;3.43;2.87;;;19.10;99.90;;;;;;4151726;28;20314;-76
2023/06/10 00:06:24;;;;;;;5.17;2.80;;;19.00;99.90;;;;;;4154172;28;20740;-76
2023/06/10 00:08:26;;;;;;;3.80;2.93;;;19.00;99.90;;;;;;4150205;28;20280;-75
2023/06/10 00:10:28;;;;;;;6.63;3.00;;;18.90;99.90;;;;;;4153187;28;20212;-75
2023/06/10 00:12:31;;;;;;;5.57;3.23;;;18.90;99.90;;;;;;4153101;28;20211;-75
2023/06/10 00:14:33;;;;;;;6.50;3.00;;;18.90;99.90;;;;;;4148667;28;21290;-76
2023/06/10 00:16:36;;;;;;;5.27;2.60;;;18.80;99.90;;;;;;4150113;28;20222;-75
2023/06/10 00:18:38;;;;;;;6.23;3.00;;;18.80;99.90;;;;;;4146085;28;20207;-76
2023/06/10 00:20:40;;;;;;;5.17;3.13;;;18.80;99.90;;;;;;4148331;28;20245;-75
2023/06/10 00:22:45;;;;;;;5.63;3.13;;;18.70;99.90;;;;;;4148707;28;20207;-75
2023/06/10 00:24:47;;;;;;;7.50;3.30;;;18.70;99.90;;;;;;4148058;28;20228;-75
2023/06/10 00:26:50;;;;;;;4.70;2.80;;;18.70;99.90;;;;;;4144617;28;20602;-75
2023/06/10 00:28:53;;;;;;;6.40;3.00;;;18.60;99.90;;;;;;4151003;28;20301;-76
2023/06/10 00:30:55;;;;;;;6.33;2.90;;;18.60;99.90;;;;;;4143040;28;20211;-76
2023/06/10 00:32:57;;;;;;;7.27;3.53;;;18.50;99.90;;;;;;4151901;28;20585;-75
2023/06/10 00:34:59;;;;;;;5.53;3.03;;;18.50;99.90;;;;;;4148771;28;20279;-76
2023/06/10 00:37:00;;;;;;;5.33;3.23;;;18.40;99.90;;;;;;4148010;28;20654;-75
2023/06/10 00:39:04;;;;;;;8.27;3.40;;;18.40;99.90;;;;;;4142951;28;20297;-75
2023/06/10 00:41:08;;;;;;;3.93;2.60;;;18.30;99.90;;;;;;4152168;28;20251;-76
2023/06/10 00:43:10;;;;;;;4.27;2.83;;;18.30;99.90;;;;;;4150451;28;20213;-76
2023/06/10 00:45:12;;;;;;;7.10;3.30;;;18.20;99.90;;;;;;4156960;28;20197;-76
2023/06/10 00:47:14;;;;;;;5.40;3.40;;;18.20;99.90;;;;;;4150904;28;20215;-76
2023/06/10 00:49:17;;;;;;;5.97;3.43;;;18.10;99.90;;;;;;4145165;28;20268;-76
2023/06/10 00:51:20;;;;;;;7.57;3.13;;;18.10;99.90;;;;;;4146725;28;20301;-76
2023/06/10 00:53:23;;;;;;;10.60;3.30;;;18.10;99.90;;;;;;4155047;28;20209;-76
2023/06/10 00:55:27;;;;;;;9.43;3.13;;;18.00;99.90;;;;;;4147510;28;20215;-75
2023/06/10 00:57:29;;;;;;;5.50;3.10;;;18.00;99.90;;;;;;4148711;28;20632;-76
2023/06/10 00:59:31;;;;;;;6.20;3.13;;;17.90;99.90;;;;;;4149838;28;20213;-76
2023/06/10 01:01:33;;;;;;;7.23;3.90;;;17.90;99.90;;;;;;4141212;28;20216;-76
2023/06/10 01:03:36;;;;;;;4.20;3.00;;;17.90;99.90;;;;;;4144017;28;20256;-76
2023/06/10 01:05:39;;;;;;;7.63;3.07;;;17.80;99.90;;;;;;4145253;28;20209;-76
2023/06/10 01:07:49;;;;;;;4.77;3.53;;;17.80;99.90;;;;;;4147735;28;20229;-77
2023/06/10 01:10:00;;;;;;;7.07;3.37;;;17.80;99.90;;;;;;4149123;28;20213;-75
2023/06/10 01:12:11;;;;;;;6.27;3.53;;;17.70;99.90;;;;;;4149910;28;20204;-76
2023/06/10 01:14:14;;;;;;;7.27;3.73;;;17.70;99.90;;;;;;4149402;28;20618;-75
2023/06/10 01:16:16;;;;;;;8.27;4.23;;;17.60;99.90;;;;;;4143253;28;20215;-75
2023/06/10 01:18:18;;;;;;;8.37;4.37;;;17.60;99.90;;;;;;4148779;28;20713;-76
2023/06/10 01:20:20;;;;;;;8.47;4.10;;;17.50;99.90;;;;;;4149488;28;20850;-76
2023/06/10 01:22:25;;;;;;;5.73;3.70;;;17.50;99.90;;;;;;4145530;28;21703;-76
2023/06/10 01:24:28;;;;;;;10.27;4.60;;;17.50;99.90;;;;;;4145416;28;20224;-76
2023/06/10 01:26:32;;;;;;;8.60;4.53;;;17.40;99.90;;;;;;4139017;28;20290;-76
2023/06/10 01:28:41;;;;;;;7.87;4.37;;;17.40;99.90;;;;;;4150805;28;20232;-76
2023/06/10 01:30:49;;;;;;;9.57;5.37;;;17.30;99.90;;;;;;4149328;28;20415;-77
2023/06/10 01:32:52;;;;;;;8.60;5.20;;;17.30;99.90;;;;;;4144824;28;20225;-76
2023/06/10 01:34:56;;;;;;;9.40;4.93;;;17.20;99.90;;;;;;4146523;28;20271;-76
2023/06/10 01:36:59;;;;;;;9.00;5.00;;;17.20;99.90;;;;;;4146784;28;20230;-76
2023/06/10 01:39:05;;;;;;;10.70;5.23;;;17.10;99.90;;;;;;4147773;28;20729;-76
2023/06/10 01:41:08;;;;;;;9.77;5.73;;;17.10;99.90;;;;;;4148925;28;20808;-75
2023/06/10 01:43:10;;;;;;;9.17;5.13;;;17.10;99.90;;;;;;4150385;28;20260;-78
2023/06/10 01:45:12;;;;;;;12.23;5.67;;;17.10;99.90;;;;;;4148330;28;20212;-75
2023/06/10 01:47:14;;;;;;;10.17;5.33;;;17.00;99.90;;;;;;4148376;28;20939;-75
2023/06/10 01:49:16;;;;;;;8.73;5.17;;;17.00;99.90;;;;;;4148039;28;20742;-77
2023/06/10 01:51:19;;;;;;;9.40;5.07;;;17.00;99.90;;;;;;4151040;28;20212;-77
2023/06/10 01:53:21;;;;;;;9.07;4.70;;;16.90;99.90;;;;;;4149931;28;20302;-75
2023/06/10 01:55:24;;;;;;;7.23;4.20;;;16.90;99.90;;;;;;4146316;28;20270;-76
2023/06/10 01:57:26;;;;;;;10.77;5.83;;;16.90;99.90;;;;;;4147579;28;20199;-75
2023/06/10 01:59:28;;;;;;;8.23;4.50;;;16.80;99.90;;;;;;4147178;28;20283;-76
2023/06/10 02:01:30;;;;;;;7.00;4.03;;;16.80;99.90;;;;;;4139405;28;20216;-75
2023/06/10 02:03:32;;;;;;;8.70;4.43;;;16.80;99.90;;;;;;4145920;28;20231;-75
2023/06/10 02:05:34;;;;;;;9.27;4.93;;;16.70;99.90;;;;;;4151950;28;20211;-75
2023/06/10 02:07:36;;;;;;;7.53;4.10;;;16.70;99.90;;;;;;4155030;28;20211;-75
2023/06/10 02:09:38;;;;;;;6.27;4.00;;;16.70;99.90;;;;;;4146467;28;20295;-76
2023/06/10 02:11:41;;;;;;;8.40;4.50;;;16.70;99.90;;;;;;4149989;28;20207;-76
2023/06/10 02:13:43;;;;;;;7.10;4.20;;;16.60;99.90;;;;;;4143275;28;20231;-75
2023/06/10 02:15:45;;;;;;;9.13;4.23;;;16.60;99.90;;;;;;4142205;28;20310;-75
2023/06/10 02:17:48;;;;;;;6.30;4.30;;;16.50;99.90;;;;;;4145030;28;20211;-75
2023/06/10 02:19:52;;;;;;;6.73;4.30;;;16.50;99.90;;;;;;4147738;28;20211;-75
2023/06/10 02:21:54;;;;;;;7.50;4.23;;;16.50;99.90;;;;;;4144704;28;20235;-75
2023/06/10 02:23:56;;;;;;;7.27;4.50;;;16.50;99.90;;;;;;4146943;28;20593;-75
2023/06/10 02:25:58;;;;;;;7.43;4.53;;;16.50;99.90;;;;;;4152223;28;21112;-75
2023/06/10 02:28:03;;;;;;;7.10;4.23;;;16.40;99.90;;;;;;4147438;28;20212;-77
2023/06/10 02:30:06;;;;;;;8.40;3.93;;;16.40;99.90;;;;;;4145628;28;20265;-75
2023/06/10 02:32:09;;;;;;;8.33;4.20;;;16.40;99.90;;;;;;4139128;28;20204;-75
2023/06/10 02:34:11;;;;;;;8.90;4.07;;;16.40;99.90;;;;;;4144153;28;20263;-75
2023/06/10 02:36:15;;;;;;;7.47;4.40;;;16.30;99.90;;;;;;4148587;28;20239;-75
2023/06/10 02:38:18;;;;;;;8.30;4.47;;;16.30;99.90;;;;;;4148210;28;20204;-76
2023/06/10 02:40:20;;;;;;;7.13;4.30;;;16.30;99.90;;;;;;4143912;28;20227;-76
2023/06/10 02:42:22;;;;;;;6.20;3.93;;;16.20;99.90;;;;;;4144553;28;20212;-76
2023/06/10 02:44:25;;;;;;;7.40;4.43;;;16.20;99.90;;;;;;4145337;28;20314;-75
2023/06/10 02:46:28;;;;;;;7.33;4.60;;;16.20;99.90;;;;;;4148671;28;20570;-76
2023/06/10 02:48:30;;;;;;;6.80;3.97;;;16.10;99.90;;;;;;4150247;28;20263;-76
2023/06/10 02:50:32;;;;;;;8.73;4.67;;;16.10;99.90;;;;;;4155423;28;20305;-76
2023/06/10 02:52:34;;;;;;;7.63;4.30;;;16.10;99.90;;;;;;4151657;28;20211;-76
2023/06/10 02:54:36;;;;;;;9.60;4.67;;;15.90;99.90;;;;;;4145081;28;20248;-76
2023/06/10 02:56:41;;;;;;;6.57;3.60;;;16.00;99.90;;;;;;4160691;28;20230;-76
2023/06/10 02:58:43;;;;;;;7.83;3.80;;;16.00;99.90;;;;;;4149722;28;20215;-76
2023/06/10 03:00:47;;;;;;;6.53;4.03;;;16.00;99.90;;;;;;4152260;28;20219;-76
2023/06/10 03:02:48;;;;;;;9.57;4.10;;;15.90;99.90;;;;;;4157676;28;20284;-76
2023/06/10 03:04:50;;;;;;;8.60;4.37;;;15.90;99.90;;;;;;4142194;28;20228;-76
2023/06/10 03:06:52;;;;;;;8.03;4.00;;;15.90;99.90;;;;;;4156402;28;20337;-76
2023/06/10 03:08:54;;;;;;;6.57;3.73;;;15.80;99.90;;;;;;4148850;28;20243;-76
2023/06/10 03:10:57;;;;;;;9.60;4.50;;;15.80;99.90;;;;;;4148825;28;20291;-76
2023/06/10 03:12:59;;;;;;;10.47;4.00;;;15.80;99.90;;;;;;4148746;28;20970;-76
2023/06/10 03:15:03;;;;;;;7.97;3.87;;;15.70;99.90;;;;;;4153017;28;20716;-77
2023/06/10 03:17:08;;;;;;;7.07;3.83;;;15.70;99.90;;;;;;4152211;28;20223;-77
2023/06/10 03:19:10;;;;;;;6.80;3.77;;;15.70;99.90;;;;;;4148708;28;20207;-76
2023/06/10 03:21:15;;;;;;;6.00;3.77;;;15.70;99.90;;;;;;4150566;28;20330;-76
2023/06/10 03:23:16;;;;;;;8.17;4.10;;;15.60;99.90;;;;;;4154706;28;20253;-76
2023/06/10 03:25:20;;;;;;;9.33;3.90;;;15.60;99.90;;;;;;4150800;28;20226;-77
2023/06/10 03:27:22;;;;;;;9.10;4.37;;;15.60;99.90;;;;;;4150100;28;20939;-76
2023/06/10 03:29:24;;;;;;;8.63;3.97;;;15.50;99.90;;;;;;4147250;28;20238;-76
2023/06/10 03:31:26;;;;;;;8.57;3.77;;;15.50;99.90;;;;;;4147070;28;20223;-76
2023/06/10 03:33:29;;;;;;;8.10;3.73;;;15.50;99.90;;;;;;4152120;28;20265;-76
2023/06/10 03:35:32;;;;;;;5.50;3.90;;;15.50;99.90;;;;;;4148366;28;20889;-76
2023/06/10 03:37:34;;;;;;;7.87;4.40;;;15.40;99.90;;;;;;4147952;28;20568;-76
2023/06/10 03:39:36;;;;;;;4.97;3.80;;;15.40;99.90;;;;;;4155459;28;20214;-76
2023/06/10 03:41:38;;;;;;;7.90;4.30;;;15.40;99.90;;;;;;4146802;28;20954;-76
2023/06/10 03:43:40;;;;;;;6.70;3.97;;;15.30;99.90;;;;;;4149338;28;20651;-76
2023/06/10 03:45:42;;;;;;;7.70;3.80;;;15.30;99.90;;;;;;4155654;28;20574;-76
2023/06/10 03:47:44;;;;;;;10.60;4.50;;;15.40;99.90;;;;;;4145879;28;20228;-76
2023/06/10 03:49:48;;;;;;;7.20;3.70;;;15.40;99.90;;;;;;4154577;28;20234;-76
2023/06/10 03:51:50;;;;;;;5.67;3.70;;;15.30;99.90;;;;;;4148047;28;20218;-76
2023/06/10 03:53:52;;;;;;;7.00;4.37;;;15.30;99.90;;;;;;4152576;28;20779;-76
2023/06/10 03:55:54;;;;;;;5.97;3.93;;;15.30;99.90;;;;;;4149773;28;20218;-76
2023/06/10 03:57:56;;;;;;;7.37;4.30;;;15.30;99.90;;;;;;4147065;28;20734;-77
2023/06/10 03:59:57;;;;;;;7.27;4.40;;;15.30;99.90;;;;;;4142912;28;20306;-76
2023/06/10 04:02:00;;;;;;;7.00;4.03;;;15.20;99.90;;;;;;4148589;28;20213;-76
2023/06/10 04:04:02;;;;;;;7.40;3.93;;;15.20;99.90;;;;;;4148101;28;20230;-76
2023/06/10 04:06:05;;;;;;;6.80;3.90;;;15.20;99.90;;;;;;4148849;28;20219;-77
2023/06/10 04:08:07;;;;;;;9.63;4.57;;;15.20;99.90;;;;;;4146893;28;20273;-77
2023/06/10 04:10:10;;;;;;;9.60;4.10;;;15.20;99.90;;;;;;4145986;28;20234;-76
2023/06/10 04:12:12;;;;;;;7.13;4.10;;;15.20;99.90;;;;;;4154570;28;20667;-76
2023/06/10 04:14:15;;;;;;;6.77;4.20;;;15.20;99.90;;;;;;4151595;28;20331;-77
2023/06/10 04:16:17;;;;;;;9.43;4.07;;;15.20;99.90;;;;;;4158126;28;20252;-76
2023/06/10 04:18:21;;;;;;;8.70;4.30;;;15.20;99.90;;;;;;4152446;28;20301;-76
2023/06/10 04:20:23;;;;;;;7.80;3.90;;;15.20;99.90;;;;;;4147482;28;20215;-76
2023/06/10 04:22:27;;;;;;;6.90;4.30;;;15.10;99.90;;;;;;4150042;28;20224;-76
2023/06/10 04:24:29;;;;;;;6.77;4.20;;;15.10;99.90;;;;;;4147234;28;20262;-76
2023/06/10 04:26:31;;;;;;;8.23;4.40;;;15.10;99.90;;;;;;4146242;28;20629;-76
2023/06/10 04:28:33;;;;;;;9.10;4.47;;;15.10;99.90;;;;;;4149816;28;20218;-76
2023/06/10 04:30:34;;;;;;;9.07;4.33;;;15.10;99.90;;;;;;4148572;28;20219;-75
2023/06/10 04:32:36;;;;;;;13.53;5.43;;;15.10;99.90;;;;;;4145017;28;20304;-76
2023/06/10 04:34:40;;;;;;;7.13;4.50;;;15.10;99.90;;;;;;4144719;28;20270;-76
2023/06/10 04:36:42;;;;;;;6.80;4.40;;;15.10;99.90;;;;;;4145000;28;20304;-76
2023/06/10 04:38:45;;;;;;;9.50;5.00;;;15.10;99.90;;;;;;4153780;28;20213;-76
2023/06/10 04:40:47;;;;;;;7.80;4.40;;;15.10;99.90;;;;;;4157350;28;20258;-76
2023/06/10 04:42:49;;;;;;;10.20;4.97;;;15.10;99.90;;;;;;4156876;28;20593;-76
2023/06/10 04:44:51;;;;;;;9.77;4.47;;;15.10;99.90;;;;;;4157959;28;20235;-77
2023/06/10 04:46:54;;;;;;;6.93;4.53;;;15.20;99.90;;;;;;4154653;28;20214;-75
2023/06/10 04:48:57;;;;;;;12.73;4.57;;;15.10;99.90;;;;;;4159681;28;20234;-76
2023/06/10 04:51:00;;;;;;;6.37;4.03;;;15.10;99.90;;;;;;4155014;28;20226;-76
2023/06/10 04:53:02;;;;;;;7.73;4.70;;;15.10;99.90;;;;;;4148297;28;20210;-76
2023/06/10 04:55:06;;;;;;;8.23;4.70;;;15.10;99.90;;;;;;4150222;28;20320;-75
2023/06/10 04:57:08;;;;;;;8.73;4.93;;;15.10;99.90;;;;;;4153978;28;20235;-76
2023/06/10 04:59:14;;;;;;;8.47;4.33;;;15.10;99.90;;;;;;4148513;28;20273;-76
2023/06/10 05:01:16;;;;;;;7.93;4.63;;;15.10;99.90;;;;;;4141679;28;20205;-76
2023/06/10 05:03:18;;;;;;;9.87;5.97;;;15.10;99.90;;;;;;4153088;28;20241;-76
2023/06/10 05:05:20;;;;;;;13.77;7.10;;;15.10;99.90;;;;;;4148283;28;20240;-76
2023/06/10 05:07:22;;;;;;;10.73;6.30;;;15.20;99.90;;;;;;4154022;28;20215;-75
2023/06/10 05:09:24;;;;;;;10.33;5.40;;;15.10;99.90;;;;;;4157475;28;20277;-75
2023/06/10 05:11:27;;;;;;;9.93;5.40;;;15.20;99.90;;;;;;4146846;28;20893;-75
2023/06/10 05:13:36;;;;;;;8.73;5.63;;;15.20;99.90;;;;;;4155177;28;20217;-76
2023/06/10 05:15:38;;;;;;;10.50;5.37;;;15.20;99.90;;;;;;4146851;28;20213;-76
2023/06/10 05:17:39;;;;;;;10.23;6.03;;;15.20;99.90;;;;;;4151622;28;20270;-76
2023/06/10 05:19:43;;;;;;;9.97;5.57;;;15.20;99.90;;;;;;4147998;28;20217;-76
2023/06/10 05:21:48;;;;;;;9.73;5.57;;;15.20;99.90;;;;;;4150602;28;20304;-77
2023/06/10 05:23:50;;;;;;;7.73;5.50;;;15.30;99.90;;;;;;4152946;28;20231;-75
2023/06/10 05:25:52;;;;;;;9.43;5.80;;;15.30;99.90;;;;;;4156120;28;20234;-75
2023/06/10 05:27:55;;;;;;;9.33;5.30;;;15.30;99.90;;;;;;4144987;28;20944;-75
2023/06/10 05:29:57;;;;;;;7.77;5.13;;;15.30;99.90;;;;;;4145095;28;20346;-75
2023/06/10 05:32:02;;;;;;;7.80;5.40;;;15.30;99.90;;;;;;4150153;28;20242;-75
2023/06/10 05:34:05;;;;;;;10.23;5.17;;;15.40;99.90;;;;;;4146811;28;20291;-75
2023/06/10 05:36:07;;;;;;;7.77;5.40;;;15.40;99.90;;;;;;4146927;28;20594;-75
2023/06/10 05:38:09;;;;;;;7.83;5.57;;;15.40;99.90;;;;;;4149920;28;20672;-75
2023/06/10 05:40:12;;;;;;;9.37;5.73;;;15.40;99.90;;;;;;4151511;28;20322;-75
2023/06/10 05:42:14;;;;;;;8.53;5.70;;;15.40;99.90;;;;;;4146037;28;20216;-75
2023/06/10 05:44:18;;;;;;;10.33;5.70;;;15.50;99.90;;;;;;4146036;28;20241;-76
2023/06/10 05:46:21;;;;;;;10.20;5.97;;;15.50;99.90;;;;;;4146990;28;20205;-76
2023/06/10 05:48:23;;;;;;;9.87;6.13;;;15.60;99.90;;;;;;4144274;28;20240;-76
2023/06/10 05:50:27;;;;;;;12.20;6.23;;;15.60;99.90;;;;;;4148315;28;20699;-76
2023/06/10 05:52:28;;;;;;;13.27;6.00;;;15.60;99.90;;;;;;4146591;28;20218;-76
2023/06/10 05:54:30;;;;;;;9.13;6.03;;;15.60;99.90;;;;;;4146310;28;20292;-76
2023/06/10 05:56:32;;;;;;;12.83;5.50;;;15.70;99.90;;;;;;4150153;28;20217;-76
2023/06/10 05:58:34;;;;;;;11.70;6.40;;;15.70;99.90;;;;;;4144868;28;20215;-76
2023/06/10 06:00:38;;;;;;;9.00;5.43;;;15.70;99.90;;;;;;4152041;28;20239;-77
2023/06/10 06:02:39;;;;;;;12.00;6.63;;;15.80;99.90;;;;;;4143221;28;20253;-76
2023/06/10 06:04:41;;;;;;;11.80;6.50;;;15.80;99.90;;;;;;4146973;28;20223;-76
2023/06/10 06:06:46;;;;;;;9.97;5.80;;;15.80;99.90;;;;;;4147788;28;20303;-76
2023/06/10 06:08:48;;;;;;;11.93;6.30;;;15.90;99.90;;;;;;4152045;28;20306;-76
2023/06/10 06:10:53;;;;;;;9.57;5.80;;;15.90;99.90;;;;;;4151460;28;20223;-76
2023/06/10 06:12:58;;;;;;;7.50;5.57;;;16.00;99.90;;;;;;4148420;28;20219;-76
2023/06/10 06:14:59;;;;;;;10.93;6.03;;;16.00;99.90;;;;;;4148487;28;20231;-76
2023/06/10 06:17:03;;;;;;;12.80;6.43;;;16.00;99.90;;;;;;4151839;28;20272;-76
2023/06/10 06:19:05;;;;;;;8.70;6.03;;;16.10;99.90;;;;;;4159080;28;20207;-76
2023/06/10 06:21:07;;;;;;;14.00;6.30;;;16.10;99.90;;;;;;4155928;28;20713;-76
2023/06/10 06:23:09;;;;;;;11.83;6.57;;;16.20;99.90;;;;;;4150550;28;20309;-76
2023/06/10 06:25:11;;;;;;;10.17;6.10;;;16.20;99.90;;;;;;4151260;28;20263;-77
2023/06/10 06:27:13;;;;;;;9.10;6.17;;;16.20;99.90;;;;;;4153640;28;20214;-77
2023/06/10 06:29:15;;;;;;;11.60;6.73;;;16.30;99.90;;;;;;4154714;28;20215;-77
2023/06/10 06:31:17;;;;;;;11.90;6.20;;;16.30;99.90;;;;;;4149849;28;20215;-77
2023/06/10 06:33:21;;;;;;;10.93;6.50;;;16.40;99.90;;;;;;4154291;28;20298;-75
2023/06/10 06:35:23;;;;;;;11.43;6.30;;;16.40;99.90;;;;;;4144334;28;20239;-76
2023/06/10 06:37:25;;;;;;;11.17;6.63;;;16.50;99.90;;;;;;4146158;28;20239;-75
2023/06/10 06:39:27;;;;;;;11.07;6.87;;;16.50;99.90;;;;;;4152195;28;20211;-76
2023/06/10 06:41:30;;;;;;;9.57;6.00;;;16.60;99.90;;;;;;4152512;28;20219;-75
2023/06/10 06:43:31;;;;;;;13.13;6.63;;;16.60;99.90;;;;;;4150592;28;20251;-75
2023/06/10 06:45:34;;;;;;;11.87;6.27;;;16.60;99.90;;;;;;4155493;28;20293;-75
2023/06/10 06:47:36;;;;;;;10.90;6.70;;;16.70;99.90;;;;;;4153415;28;20556;-75
2023/06/10 06:49:39;;;;;;;9.83;6.37;;;16.70;99.90;;;;;;4153313;28;20236;-75
2023/06/10 06:51:41;;;;;;;12.27;6.60;;;16.70;99.90;;;;;;4145556;28;20216;-75
2023/06/10 06:53:44;;;;;;;11.23;6.67;;;16.80;99.90;;;;;;4149715;28;20246;-75
2023/06/10 06:55:46;;;;;;;13.70;7.13;;;16.90;99.90;;;;;;4155335;28;20206;-75
2023/06/10 06:57:48;;;;;;;10.57;6.33;;;16.90;99.90;;;;;;4152646;28;20251;-75
2023/06/10 06:59:50;;;;;;;9.63;6.77;;;17.00;99.90;;;;;;4153953;28;20199;-76
2023/06/10 07:01:53;;;;;;;9.60;6.50;;;17.00;99.90;;;;;;4148998;28;20928;-76
2023/06/10 07:03:55;;;;;;;12.33;6.30;;;17.00;99.90;;;;;;4147798;28;20232;-75
2023/06/10 07:05:59;;;;;;;9.60;6.10;;;17.10;99.90;;;;;;4151067;28;20306;-77
2023/06/10 07:08:01;;;;;;;10.77;6.40;;;17.20;99.90;;;;;;4152678;28;20211;-76
2023/06/10 07:10:03;;;;;;;10.53;6.67;;;17.20;99.90;;;;;;4146416;28;20764;-76
2023/06/10 07:12:05;;;;;;;11.80;7.07;;;17.20;99.90;;;;;;4151155;28;20744;-77
2023/06/10 07:14:07;;;;;;;12.13;6.80;;;17.20;99.90;;;;;;4150328;28;20247;-77
2023/06/10 07:16:09;;;;;;;10.10;5.97;;;17.30;99.90;;;;;;4150345;28;20287;-76
2023/06/10 07:18:11;;;;;;;10.03;6.37;;;17.40;99.90;;;;;;4152697;28;20839;-77
2023/06/10 07:20:14;;;;;;;11.03;6.83;;;17.40;99.90;;;;;;4144394;28;20208;-76
2023/06/10 07:22:17;;;;;;;11.63;7.07;;;17.50;99.90;;;;;;4148427;28;20316;-76
2023/06/10 07:24:20;;;;;;;12.03;6.80;;;17.50;99.90;;;;;;4148527;28;20235;-75
2023/06/10 07:26:23;;;;;;;11.00;6.83;;;17.60;99.90;;;;;;4154470;28;20204;-76
2023/06/10 07:28:25;;;;;;;9.73;6.80;;;17.70;99.90;;;;;;4152644;28;20231;-76
2023/06/10 07:30:27;;;;;;;11.57;7.30;;;17.70;99.90;;;;;;4152868;28;20232;-76
2023/06/10 07:32:29;;;;;;;13.70;6.87;;;17.80;99.90;;;;;;4151276;28;20220;-76
2023/06/10 07:34:31;;;;;;;11.90;6.90;;;17.80;99.90;;;;;;4147451;28;20244;-76
2023/06/10 07:36:33;;;;;;;13.17;7.33;;;17.90;99.90;;;;;;4145674;28;20208;-76
2023/06/10 07:38:37;;;;;;;13.60;8.10;;;17.90;99.90;;;;;;4151644;28;20562;-76
2023/06/10 07:40:39;;;;;;;10.47;7.37;;;18.00;99.90;;;;;;4150032;28;20208;-76
2023/06/10 07:42:41;;;;;;;11.27;7.47;;;18.00;99.90;;;;;;4148935;28;20316;-77
2023/06/10 07:44:43;;;;;;;12.47;7.53;;;18.10;99.90;;;;;;4147720;28;20235;-75
2023/06/10 07:46:45;;;;;;;11.50;7.30;;;18.10;99.90;;;;;;4150074;28;20213;-77
2023/06/10 07:48:47;;;;;;;11.43;7.20;;;18.20;99.90;;;;;;4147606;28;20271;-77
2023/06/10 07:50:49;;;;;;;10.70;7.27;;;18.30;99.90;;;;;;4147221;28;20283;-77
2023/06/10 07:52:51;;;;;;;12.27;7.30;;;18.40;99.90;;;;;;4146819;28;20217;-77
2023/06/10 07:54:55;;;;;;;11.50;7.37;;;18.40;99.90;;;;;;4153688;28;20607;-78
2023/06/10 07:56:59;;;;;;;11.53;7.67;;;18.50;99.90;;;;;;4153246;28;20213;-76
2023/06/10 07:59:01;;;;;;;13.03;7.70;;;18.50;99.90;;;;;;4154898;28;20633;-77
2023/06/10 08:01:03;;;;;;;12.10;7.70;;;18.60;99.90;;;;;;4161673;28;20235;-77
2023/06/10 08:03:05;;;;;;;11.03;7.83;;;18.70;99.90;;;;;;4154623;28;20213;-77
2023/06/10 08:05:08;;;;;;;11.43;7.13;;;18.70;99.90;;;;;;4145946;28;20253;-76
2023/06/10 08:07:10;;;;;;;11.50;7.23;;;18.80;99.90;;;;;;4141583;28;20646;-77
2023/06/10 08:09:12;;;;;;;8.77;6.80;;;18.90;99.90;;;;;;4153784;28;20219;-77
2023/06/10 08:11:15;;;;;;;12.03;6.97;;;18.90;99.90;;;;;;4154162;28;20277;-77
2023/06/10 08:13:17;;;;;;;13.10;7.83;;;19.00;99.90;;;;;;4147850;28;20306;-77
2023/06/10 08:15:19;;;;;;;11.13;7.43;;;19.00;99.90;;;;;;4150973;28;20629;-77
2023/06/10 08:17:21;;;;;;;12.33;7.70;;;19.10;99.90;;;;;;4150441;28;20218;-76
2023/06/10 08:19:23;;;;;;;10.87;7.67;;;19.20;99.90;;;;;;4148158;28;20309;-76
2023/06/10 08:21:25;;;;;;;11.23;7.53;;;19.20;99.90;;;;;;4151690;28;20672;-76
2023/06/10 08:23:27;;;;;;;12.33;7.50;;;19.30;99.90;;;;;;4146059;28;20219;-76
2023/06/10 08:25:29;;;;;;;10.17;7.27;;;19.40;99.90;;;;;;4147296;28;20313;-76
2023/06/10 08:27:32;;;;;;;9.13;6.90;;;19.40;99.90;;;;;;4148062;28;20222;-77
2023/06/10 08:29:34;;;;;;;9.70;7.47;;;19.50;99.90;;;;;;4152856;28;20217;-79
2023/06/10 08:31:36;;;;;;;11.70;7.50;;;19.60;99.90;;;;;;4145730;28;20227;-76
2023/06/10 08:33:39;;;;;;;13.20;7.93;;;19.70;99.90;;;;;;4146668;28;20311;-76
2023/06/10 08:35:42;;;;;;;12.60;7.70;;;19.80;99.90;;;;;;4151531;28;20217;-76
2023/06/10 08:37:44;;;;;;;11.30;7.03;;;19.80;99.90;;;;;;4149136;28;20238;-76
2023/06/10 08:39:46;;;;;;;9.67;7.30;;;19.90;99.90;;;;;;4153019;28;20251;-76
2023/06/10 08:41:59;;;;;;;10.13;6.77;;;20.00;99.90;;;;;;4154131;28;20223;-76
2023/06/10 08:44:18;;;;;;;10.93;7.27;;;20.00;99.90;;;;;;4142215;28;20283;-77
2023/06/10 08:46:21;;;;;;;11.43;7.07;;;20.10;99.90;;;;;;4149209;28;20217;-77
2023/06/10 08:48:23;;;;;;;11.83;7.20;;;20.20;99.90;;;;;;4144824;28;20626;-77
2023/06/10 08:50:28;;;;;;;10.67;7.57;;;20.30;99.90;;;;;;4149539;28;20321;-75
2023/06/10 08:52:34;;;;;;;9.77;6.77;;;20.30;99.90;;;;;;4149119;28;20214;-76
2023/06/10 08:54:39;;;;;;;9.17;7.13;;;20.40;99.90;;;;;;4153037;28;20234;-76
2023/06/10 08:56:42;;;;;;;10.20;6.63;;;20.50;99.90;;;;;;4148969;28;20587;-77
2023/06/10 08:58:44;;;;;;;10.27;6.77;;;20.60;99.90;;;;;;4147767;28;20962;-75
2023/06/10 09:00:48;;;;;;;10.63;6.97;;;20.70;99.90;;;;;;4153494;28;20238;-77
2023/06/10 09:02:51;;;;;;;13.87;7.33;;;20.80;99.90;;;;;;4151065;28;20214;-77
2023/06/10 09:04:54;;;;;;;11.67;6.93;;;20.90;99.90;;;;;;4154673;28;20867;-75
2023/06/10 09:06:58;;;;;;;10.57;6.80;;;21.00;99.90;;;;;;4142666;28;20291;-75
2023/06/10 09:09:01;;;;;;;8.53;6.83;;;21.10;99.90;;;;;;4152578;28;20207;-75
2023/06/10 09:11:03;;;;;;;9.17;7.03;;;21.20;99.90;;;;;;4148490;28;20234;-76
2023/06/10 09:13:06;;;;;;;12.80;7.30;;;21.20;99.90;;;;;;4148304;28;20210;-76
2023/06/10 09:15:11;;;;;;;10.60;7.23;;;21.30;99.90;;;;;;4148446;28;20220;-76
2023/06/10 09:17:15;;;;;;;10.90;7.30;;;21.40;99.90;;;;;;4146044;28;20211;-77
2023/06/10 09:19:21;;;;;;;9.63;6.80;;;21.50;99.90;;;;;;4146775;28;20211;-76
2023/06/10 09:21:23;;;;;;;10.27;7.13;;;21.60;99.90;;;;;;4151722;28;20203;-76
2023/06/10 09:23:26;;;;;;;9.53;6.67;;;21.70;99.90;;;;;;4149753;28;20207;-77
2023/06/10 09:25:36;;;;;;;12.23;7.43;;;21.80;99.90;;;;;;4150939;28;20318;-77
2023/06/10 09:27:49;;;;;;;9.07;6.83;;;21.90;99.90;;;;;;4148870;28;20212;-78
2023/06/10 09:29:53;;;;;;;8.07;6.53;;;22.00;99.90;;;;;;4150431;28;20211;-77
2023/06/10 09:31:55;;;;;;;9.13;7.03;;;22.10;99.90;;;;;;4146560;28;20315;-77
2023/06/10 09:34:08;;;;;;;9.17;6.37;;;22.20;99.90;;;;;;4150625;28;20335;-77
2023/06/10 09:36:10;;;;;;;12.50;7.33;;;22.30;99.90;;;;;;4146505;28;20205;-77
2023/06/10 09:38:12;;;;;;;9.57;7.10;;;22.40;99.90;;;;;;4147421;28;20236;-77
2023/06/10 09:40:14;;;;;;;8.63;6.70;;;22.50;99.90;;;;;;4146042;28;20209;-77
2023/06/10 09:42:20;;;;;;;8.73;6.50;;;22.60;99.90;;;;;;4146030;28;20296;-77
2023/06/10 09:44:24;;;;;;;10.73;6.87;;;22.70;99.90;;;;;;4147816;28;20252;-77
2023/06/10 09:46:32;;;;;;;11.43;7.13;;;22.80;99.90;;;;;;4147998;28;20256;-76
2023/06/10 09:48:41;;;;;;;8.60;6.77;;;22.90;99.90;;;;;;4145520;28;20306;-75
2023/06/10 09:50:46;;;;;;;10.83;6.53;;;23.00;99.90;;;;;;4144321;28;20305;-78
2023/06/10 09:52:48;;;;;;;8.23;6.50;;;23.20;99.90;;;;;;4148427;28;20214;-76
2023/06/10 09:54:50;;;;;;;8.73;7.03;;;23.20;99.90;;;;;;4149204;28;20241;-77
2023/06/10 09:56:53;;;;;;;9.57;6.80;;;23.40;99.90;;;;;;4150174;28;20325;-76
2023/06/10 09:58:55;;;;;;;10.60;6.73;;;23.50;99.90;;;;;;4145422;28;21018;-76
2023/06/10 10:00:56;;;;;;;8.87;6.47;;;23.70;99.90;;;;;;4150395;28;20212;-77
2023/06/10 10:02:58;;;;;;;8.03;6.37;;;23.80;99.90;;;;;;4143718;28;20307;-77
2023/06/10 10:05:04;;;;;;;8.87;6.80;;;23.90;99.90;;;;;;4146950;28;20270;-77
2023/06/10 10:07:08;;;;;;;13.87;7.50;;;24.00;99.90;;;;;;4146744;28;20215;-77
2023/06/10 10:09:10;;;;;;;10.83;6.63;;;24.10;99.90;;;;;;4147654;28;20334;-77
2023/06/10 10:11:13;;;;;;;9.83;6.67;;;24.40;99.90;;;;;;4149156;28;20322;-77
2023/06/10 10:13:15;;;;;;;7.97;6.23;;;24.50;99.90;;;;;;4147409;28;20305;-77
2023/06/10 10:15:18;;;;;;;9.93;6.57;;;24.60;99.90;;;;;;4150725;28;20673;-77
2023/06/10 10:17:23;;;;;;;8.10;6.77;;;24.80;99.90;;;;;;4148991;28;20394;-77
2023/06/10 10:19:31;;;;;;;11.50;6.80;;;25.00;99.90;;;;;;4149772;28;20242;-77
2023/06/10 10:21:40;;;;;;;9.33;7.13;;;25.10;99.90;;;;;;4143541;28;20302;-77
2023/06/10 10:23:53;;;;;;;9.03;7.00;;;25.30;99.90;;;;;;4145040;28;21182;-77
2023/06/10 10:25:57;;;;;;;9.93;7.27;;;25.50;99.90;;;;;;4146703;28;20212;-77
2023/06/10 10:28:07;;;;;;;7.73;6.93;;;25.70;99.90;;;;;;4144900;28;20207;-77
2023/06/10 10:30:13;;;;;;;9.30;7.20;;;25.90;99.90;;;;;;4142852;28;20983;-77
2023/06/10 10:32:17;;;;;;;8.40;7.30;;;26.00;99.90;;;;;;4146033;28;20262;-77
2023/06/10 10:34:24;;;;;;;9.13;6.80;;;26.20;99.90;;;;;;4145867;28;20243;-77
2023/06/10 10:36:26;;;;;;;11.07;7.27;;;26.40;99.90;;;;;;4143131;28;20582;-77